Portada
METAR-TAF:

METAR-TAF

Aeroports :

Matsumoto, Japó

latitud: 36-10N, longitud: 137-56E, altitud: 668 m

Observació

L'informe es va fer fa 49 minuts, a les 04:00 UTC
Vent 8 kt del Nord, variant entre Nord/Nord-Oest i Est/Nord-Est
Temperatura 25°C
Humitat 21%
Pressió 1012 hPa
Visibilitat 10 km o més
Escasses núvols a una alçada de 6000 ft

METAR: RJAF 240400Z 01008KT 340V060 9999 FEW060 25/01 Q1012

Hora: 13:49 (04:49 UTC)


TAF: manca

Observacions i pronòstics meteorològics de més de 4000 aeroports (METAR i TAF).

Les estacions disponibles són els punts grocs i vermells al mapa.

Posi el ratolí al punt desitjat per veure el nom de l'estació.

Feu clic per veure les observacions i els pronòstics meteorològics.

Per canviar el mapa: feu clic els botons verds amb una creu de color negre per apropar; al botó verd amb un guió per allunyar la imatge; o en les fletxes verdes per a mapes adjacents.


METAR-TAF: